Kota Salam — 9V2123 — position and weather

sailwx.info

Track history (hours):
 
Tides and Currents Weather Stations Pressure Air Temp Water Temp Dewpoint Dewpoint Depression Visibility Wind Speed Wind Dir Waves Ship Positions

Kota Salam

Last reported at 2018-Jun-16 01:09 UTC. Time now 2018-Jun-22 07:35 UTC.
Position N 06°17' E 002°31'.

Length 228 m; draft 10.5 m.

Type: Ship (hazmat cat A). MMSI: 565110000.

Date/timePositionNaut miles runAvg speedWind from/ knotsBaromVisibWave heightAir tempDewpointWater temp
2018-Jun-16 01:09N 06°17' E 002°31'0 0.0
2018-Jun-16 00:57N 06°17' E 002°31'0 0.0
2018-Jun-16 00:30N 06°17' E 002°31'0 0.0
2018-Jun-15 22:37N 06°17' E 002°31'0 0.1
2018-Jun-15 22:28N 06°17' E 002°31'0 0.0
2018-Jun-15 22:00N 06°17' E 002°31'74 2.8
2018-Jun-14 19:39N 06°09' E 001°17'0 0.0
2018-Jun-14 19:30N 06°09' E 001°17'0 0.0
2018-Jun-14 18:51N 06°09' E 001°17'0 0.0
2018-Jun-14 18:27N 06°09' E 001°17'0 0.0
2018-Jun-14 17:42N 06°09' E 001°17'0 0.0
2018-Jun-14 00:03N 06°09' E 001°17'0 0.0
2018-Jun-13 23:42N 06°09' E 001°17'0 0.0
2018-Jun-13 23:24N 06°09' E 001°17'0 0.0
2018-Jun-13 23:00N 06°09' E 001°17'0 0.0
2018-Jun-13 22:30N 06°09' E 001°17'0 0.0
2018-Jun-13 22:00N 06°09' E 001°17'0 0.0
2018-Jun-13 21:30N 06°09' E 001°17'0 0.0
2018-Jun-13 21:00N 06°09' E 001°17'0 0.0
2018-Jun-13 20:09N 06°09' E 001°17'0 0.0
2018-Jun-13 20:00N 06°09' E 001°17'0 0.0
2018-Jun-13 19:18N 06°09' E 001°17'0 0.0
2018-Jun-13 18:54N 06°09' E 001°17'7 0.4
2018-Jun-13 02:32N 06°02' E 001°20'1 5.0
2018-Jun-13 02:20N 06°02' E 001°19'1 2.2
2018-Jun-13 01:54N 06°02' E 001°18'0 0.2
2018-Jun-13 01:13N 06°02' E 001°18'0 0.0
2018-Jun-13 00:55N 06°02' E 001°18'0 0.0
2018-Jun-13 00:19N 06°02' E 001°18'0 0.0
2018-Jun-12 23:58N 06°02' E 001°18'0 0.0
2018-Jun-12 18:46N 06°02' E 001°18'0 0.0
2018-Jun-11 19:57N 06°02' E 001°18'1 3.2
2018-Jun-11 19:30N 06°02' E 001°20'14 8.2
2018-Jun-11 17:46N 06°02' E 001°34'  
Track history (hours):
 
Tides and Currents Weather Stations Pressure Air Temp Water Temp Dewpoint Dewpoint Depression Visibility Wind Speed Wind Dir Waves Ship Positions

Kota Salam

Last reported at 2018-Jun-16 01:09 UTC. Time now 2018-Jun-22 07:35 UTC.
Position N 06°17' E 002°31'.

Length 228 m; draft 10.5 m.

Type: Ship (hazmat cat A). MMSI: 565110000.

Date/timePositionNaut miles runAvg speedWind from/ knotsBaromVisibWave heightAir tempDewpointWater temp
2018-Jun-16 01:09N 06°17' E 002°31'0 0.0
2018-Jun-16 00:57N 06°17' E 002°31'0 0.0
2018-Jun-16 00:30N 06°17' E 002°31'0 0.0
2018-Jun-15 22:37N 06°17' E 002°31'0 0.1
2018-Jun-15 22:28N 06°17' E 002°31'0 0.0
2018-Jun-15 22:00N 06°17' E 002°31'74 2.8
2018-Jun-14 19:39N 06°09' E 001°17'0 0.0
2018-Jun-14 19:30N 06°09' E 001°17'0 0.0
2018-Jun-14 18:51N 06°09' E 001°17'0 0.0
2018-Jun-14 18:27N 06°09' E 001°17'0 0.0
2018-Jun-14 17:42N 06°09' E 001°17'0 0.0
2018-Jun-14 00:03N 06°09' E 001°17'0 0.0
2018-Jun-13 23:42N 06°09' E 001°17'0 0.0
2018-Jun-13 23:24N 06°09' E 001°17'0 0.0
2018-Jun-13 23:00N 06°09' E 001°17'0 0.0
2018-Jun-13 22:30N 06°09' E 001°17'0 0.0
2018-Jun-13 22:00N 06°09' E 001°17'0 0.0
2018-Jun-13 21:30N 06°09' E 001°17'0 0.0
2018-Jun-13 21:00N 06°09' E 001°17'0 0.0
2018-Jun-13 20:09N 06°09' E 001°17'0 0.0
2018-Jun-13 20:00N 06°09' E 001°17'0 0.0
2018-Jun-13 19:18N 06°09' E 001°17'0 0.0
2018-Jun-13 18:54N 06°09' E 001°17'7 0.4
2018-Jun-13 02:32N 06°02' E 001°20'1 5.0
2018-Jun-13 02:20N 06°02' E 001°19'1 2.2
2018-Jun-13 01:54N 06°02' E 001°18'0 0.2
2018-Jun-13 01:13N 06°02' E 001°18'0 0.0
2018-Jun-13 00:55N 06°02' E 001°18'0 0.0
2018-Jun-13 00:19N 06°02' E 001°18'0 0.0
2018-Jun-12 23:58N 06°02' E 001°18'0 0.0
2018-Jun-12 18:46N 06°02' E 001°18'0 0.0
2018-Jun-11 19:57N 06°02' E 001°18'1 3.2
2018-Jun-11 19:30N 06°02' E 001°20'14 8.2
2018-Jun-11 17:46N 06°02' E 001°34'  

Dump ship's entire track history